sensor_id;sensor_type;location;lat;lon;timestamp;pressure;altitude;pressure_sealevel;temperature;humidity
75692;BME280;64307;52.508;6.090;2022-12-10T00:01:43;100894.75;;;-1.31;93.88
75692;BME280;64307;52.508;6.090;2022-12-10T00:04:09;100899.41;;;-1.32;94.15
75692;BME280;64307;52.508;6.090;2022-12-10T00:06:36;100892.50;;;-1.38;94.40
75692;BME280;64307;52.508;6.090;2022-12-10T00:09:04;100901.97;;;-1.35;94.18
75692;BME280;64307;52.508;6.090;2022-12-10T00:11:30;100893.47;;;-1.34;94.37
75692;BME280;64307;52.508;6.090;2022-12-10T00:13:57;100894.91;;;-1.36;94.33
75692;BME280;64307;52.508;6.090;2022-12-10T00:16:24;100896.69;;;-1.32;94.32
75692;BME280;64307;52.508;6.090;2022-12-10T00:18:50;100892.50;;;-1.29;94.62
75692;BME280;64307;52.508;6.090;2022-12-10T00:21:18;100889.13;;;-1.35;93.98
75692;BME280;64307;52.508;6.090;2022-12-10T00:23:44;100896.97;;;-1.33;94.08
75692;BME280;64307;52.508;6.090;2022-12-10T00:26:18;100895.22;;;-1.38;93.75
75692;BME280;64307;52.508;6.090;2022-12-10T00:28:44;100895.06;;;-1.33;93.51
75692;BME280;64307;52.508;6.090;2022-12-10T00:31:12;100896.38;;;-1.30;93.71
75692;BME280;64307;52.508;6.090;2022-12-10T00:33:38;100890.75;;;-1.34;93.33
75692;BME280;64307;52.508;6.090;2022-12-10T00:36:09;100903.28;;;-1.24;93.43
75692;BME280;64307;52.508;6.090;2022-12-10T00:38:35;100894.56;;;-1.35;92.94
75692;BME280;64307;52.508;6.090;2022-12-10T00:41:00;100896.69;;;-1.32;92.83
75692;BME280;64307;52.508;6.090;2022-12-10T00:43:26;100896.19;;;-1.34;93.22
75692;BME280;64307;52.508;6.090;2022-12-10T00:45:52;100892.00;;;-1.31;93.41
75692;BME280;64307;52.508;6.090;2022-12-10T00:48:18;100894.56;;;-1.35;92.88
75692;BME280;64307;52.508;6.090;2022-12-10T00:50:43;100886.88;;;-1.33;93.26
75692;BME280;64307;52.508;6.090;2022-12-10T00:53:08;100897.81;;;-1.33;93.17
75692;BME280;64307;52.508;6.090;2022-12-10T00:55:34;100881.75;;;-1.26;93.37
75692;BME280;64307;52.508;6.090;2022-12-10T00:57:59;100889.16;;;-1.26;92.91
75692;BME280;64307;52.508;6.090;2022-12-10T01:00:24;100893.31;;;-1.29;93.70
75692;BME280;64307;52.508;6.090;2022-12-10T01:02:49;100882.38;;;-1.29;93.38
75692;BME280;64307;52.508;6.090;2022-12-10T01:05:15;100885.16;;;-1.20;93.05
75692;BME280;64307;52.508;6.090;2022-12-10T01:07:40;100887.75;;;-1.15;92.96
75692;BME280;64307;52.508;6.090;2022-12-10T01:10:06;100896.59;;;-1.10;92.93
75692;BME280;64307;52.508;6.090;2022-12-10T01:12:31;100896.59;;;-1.10;92.90
75692;BME280;64307;52.508;6.090;2022-12-10T01:14:57;100900.94;;;-1.00;92.51
75692;BME280;64307;52.508;6.090;2022-12-10T01:17:22;100904.50;;;-0.91;92.21
75692;BME280;64307;52.508;6.090;2022-12-10T01:19:47;100905.63;;;-0.84;92.47
75692;BME280;64307;52.508;6.090;2022-12-10T01:22:13;100899.53;;;-0.80;91.74
75692;BME280;64307;52.508;6.090;2022-12-10T01:24:38;100907.75;;;-0.72;91.43
75692;BME280;64307;52.508;6.090;2022-12-10T01:27:03;100917.56;;;-0.71;90.43
75692;BME280;64307;52.508;6.090;2022-12-10T01:29:29;100919.66;;;-0.68;90.98
75692;BME280;64307;52.508;6.090;2022-12-10T01:31:56;100925.63;;;-0.66;90.61
75692;BME280;64307;52.508;6.090;2022-12-10T01:34:22;100928.97;;;-0.69;90.51
75692;BME280;64307;52.508;6.090;2022-12-10T01:36:52;100914.97;;;-0.67;90.94
75692;BME280;64307;52.508;6.090;2022-12-10T01:39:19;100924.47;;;-0.65;90.58
75692;BME280;64307;52.508;6.090;2022-12-10T01:41:51;100927.88;;;-0.68;90.79
75692;BME280;64307;52.508;6.090;2022-12-10T01:46:47;100935.88;;;-0.71;90.98
75692;BME280;64307;52.508;6.090;2022-12-10T01:49:16;100937.50;;;-0.70;90.97
75692;BME280;64307;52.508;6.090;2022-12-10T01:51:43;100933.63;;;-0.87;90.92
75692;BME280;64307;52.508;6.090;2022-12-10T01:54:13;100934.44;;;-0.77;91.40
75692;BME280;64307;52.508;6.090;2022-12-10T01:56:42;100934.44;;;-0.77;91.28
75692;BME280;64307;52.508;6.090;2022-12-10T01:59:09;100925.25;;;-0.82;91.21
75692;BME280;64307;52.508;6.090;2022-12-10T02:01:56;100917.53;;;-0.79;91.42
75692;BME280;64307;52.508;6.090;2022-12-10T02:07:15;100922.84;;;-0.83;91.19
75692;BME280;64307;52.508;6.090;2022-12-10T02:09:55;100924.59;;;-0.87;91.63
75692;BME280;64307;52.508;6.090;2022-12-10T02:12:37;100926.66;;;-1.01;92.06
75692;BME280;64307;52.508;6.090;2022-12-10T02:15:17;100927.97;;;-0.99;92.24
75692;BME280;64307;52.508;6.090;2022-12-10T02:17:54;100924.25;;;-1.03;91.47
75692;BME280;64307;52.508;6.090;2022-12-10T02:20:28;100920.66;;;-1.20;92.40
75692;BME280;64307;52.508;6.090;2022-12-10T02:23:25;100911.00;;;-1.26;92.31
75692;BME280;64307;52.508;6.090;2022-12-10T02:26:27;100914.34;;;-1.29;92.52
75692;BME280;64307;52.508;6.090;2022-12-10T02:31:30;100904.69;;;-1.44;93.44
75692;BME280;64307;52.508;6.090;2022-12-10T02:33:59;100914.34;;;-1.38;93.15
75692;BME280;64307;52.508;6.090;2022-12-10T02:36:28;100913.94;;;-1.53;93.76
75692;BME280;64307;52.508;6.090;2022-12-10T02:38:55;100911.56;;;-1.46;93.54
75692;BME280;64307;52.508;6.090;2022-12-10T02:41:34;100903.53;;;-1.43;92.82
75692;BME280;64307;52.508;6.090;2022-12-10T02:44:04;100902.56;;;-1.47;92.56
75692;BME280;64307;52.508;6.090;2022-12-10T02:46:31;100906.06;;;-1.55;93.45
75692;BME280;64307;52.508;6.090;2022-12-10T02:48:58;100893.84;;;-1.57;93.37
75692;BME280;64307;52.508;6.090;2022-12-10T02:51:25;100906.69;;;-1.58;93.39
75692;BME280;64307;52.508;6.090;2022-12-10T02:54:04;100900.63;;;-1.55;93.23
75692;BME280;64307;52.508;6.090;2022-12-10T02:56:35;100901.22;;;-1.58;93.20
75692;BME280;64307;52.508;6.090;2022-12-10T03:04:20;100907.44;;;-1.66;93.04
75692;BME280;64307;52.508;6.090;2022-12-10T03:06:52;100903.94;;;-1.67;93.58
75692;BME280;64307;52.508;6.090;2022-12-10T03:09:40;100900.25;;;-1.62;93.66
75692;BME280;64307;52.508;6.090;2022-12-10T03:12:21;100902.97;;;-1.71;93.69
75692;BME280;64307;52.508;6.090;2022-12-10T03:14:47;100905.69;;;-1.62;92.86
75692;BME280;64307;52.508;6.090;2022-12-10T03:17:13;100897.22;;;-1.60;93.20
75692;BME280;64307;52.508;6.090;2022-12-10T03:19:42;100908.16;;;-1.60;93.11
75692;BME280;64307;52.508;6.090;2022-12-10T03:22:12;100905.53;;;-1.66;93.39
75692;BME280;64307;52.508;6.090;2022-12-10T03:24:39;100897.84;;;-1.63;93.17
75692;BME280;64307;52.508;6.090;2022-12-10T03:27:07;100902.75;;;-1.74;93.27
75692;BME280;64307;52.508;6.090;2022-12-10T03:29:40;100898.28;;;-1.70;92.81
75692;BME280;64307;52.508;6.090;2022-12-10T03:32:07;100900.22;;;-1.71;92.50
75692;BME280;64307;52.508;6.090;2022-12-10T03:34:33;100905.53;;;-1.66;92.31
75692;BME280;64307;52.508;6.090;2022-12-10T03:36:59;100905.19;;;-1.73;93.13
75692;BME280;64307;52.508;6.090;2022-12-10T03:39:25;100905.69;;;-1.71;93.45
75692;BME280;64307;52.508;6.090;2022-12-10T03:41:51;100902.75;;;-1.74;93.37
75692;BME280;64307;52.508;6.090;2022-12-10T03:44:29;100905.81;;;-1.76;93.14
75692;BME280;64307;52.508;6.090;2022-12-10T03:46:55;100906.47;;;-1.70;92.96
75692;BME280;64307;52.508;6.090;2022-12-10T03:49:20;100895.88;;;-1.72;93.20
75692;BME280;64307;52.508;6.090;2022-12-10T03:51:46;100905.69;;;-1.71;92.87
75692;BME280;64307;52.508;6.090;2022-12-10T03:54:11;100913.69;;;-1.74;92.99
75692;BME280;64307;52.508;6.090;2022-12-10T03:56:36;100909.19;;;-1.70;93.31
75692;BME280;64307;52.508;6.090;2022-12-10T03:59:02;100899.53;;;-1.76;92.92
75692;BME280;64307;52.508;6.090;2022-12-10T04:01:27;100901.81;;;-1.70;92.83
75692;BME280;64307;52.508;6.090;2022-12-10T04:03:52;100906.97;;;-1.68;92.95
75692;BME280;64307;52.508;6.090;2022-12-10T04:06:19;100894.78;;;-1.71;93.26
75692;BME280;64307;52.508;6.090;2022-12-10T04:08:45;100905.38;;;-1.69;93.11
75692;BME280;64307;52.508;6.090;2022-12-10T04:11:12;100903.94;;;-1.67;93.05
75692;BME280;64307;52.508;6.090;2022-12-10T04:13:38;100904.13;;;-1.63;92.80
75692;BME280;64307;52.508;6.090;2022-12-10T04:16:23;100909.19;;;-1.70;92.78
75692;BME280;64307;52.508;6.090;2022-12-10T04:18:52;100909.34;;;-1.75;93.02
75692;BME280;64307;52.508;6.090;2022-12-10T04:21:17;100911.16;;;-1.71;92.55
75692;BME280;64307;52.508;6.090;2022-12-10T04:24:01;100908.66;;;-1.81;92.83
75692;BME280;64307;52.508;6.090;2022-12-10T04:26:45;100912.69;;;-1.78;93.06
75692;BME280;64307;52.508;6.090;2022-12-10T04:29:18;100919.78;;;-1.77;93.28
75692;BME280;64307;52.508;6.090;2022-12-10T04:31:44;100925.91;;;-1.72;92.72
75692;BME280;64307;52.508;6.090;2022-12-10T04:34:09;100921.31;;;-1.62;92.97
75692;BME280;64307;52.508;6.090;2022-12-10T04:36:34;100918.88;;;-1.64;92.50
75692;BME280;64307;52.508;6.090;2022-12-10T04:39:00;100919.22;;;-1.57;92.62
75692;BME280;64307;52.508;6.090;2022-12-10T04:41:25;100919.72;;;-1.55;92.65
75692;BME280;64307;52.508;6.090;2022-12-10T04:43:52;100911.91;;;-1.48;92.57
75692;BME280;64307;52.508;6.090;2022-12-10T04:46:17;100913.94;;;-1.53;92.17
75692;BME280;64307;52.508;6.090;2022-12-10T04:48:43;100915.69;;;-1.57;92.16
75692;BME280;64307;52.508;6.090;2022-12-10T04:51:08;100909.56;;;-1.63;93.22
75692;BME280;64307;52.508;6.090;2022-12-10T04:53:33;100915.03;;;-1.63;93.70
75692;BME280;64307;52.508;6.090;2022-12-10T04:55:58;100921.47;;;-1.59;93.65
75692;BME280;64307;52.508;6.090;2022-12-10T04:58:26;100923.06;;;-1.58;93.34
75692;BME280;64307;52.508;6.090;2022-12-10T05:01:01;100916.78;;;-1.67;93.57
75692;BME280;64307;52.508;6.090;2022-12-10T05:03:26;100907.94;;;-1.64;93.81
75692;BME280;64307;52.508;6.090;2022-12-10T05:05:52;100912.50;;;-1.51;93.07
75692;BME280;64307;52.508;6.090;2022-12-10T05:08:17;100912.63;;;-1.64;93.56
75692;BME280;64307;52.508;6.090;2022-12-10T05:10:42;100926.03;;;-1.46;93.78
75692;BME280;64307;52.508;6.090;2022-12-10T05:13:07;100922.00;;;-1.48;93.38
75692;BME280;64307;52.508;6.090;2022-12-10T05:15:37;100913.66;;;-1.52;92.97
75692;BME280;64307;52.508;6.090;2022-12-10T05:18:03;100923.88;;;-1.57;93.50
75692;BME280;64307;52.508;6.090;2022-12-10T05:20:28;100917.28;;;-1.65;93.15
75692;BME280;64307;52.508;6.090;2022-12-10T05:22:53;100918.25;;;-1.61;93.58
75692;BME280;64307;52.508;6.090;2022-12-10T05:25:37;100919.22;;;-1.57;93.68
75692;BME280;64307;52.508;6.090;2022-12-10T05:28:20;100915.03;;;-1.63;93.64
75692;BME280;64307;52.508;6.090;2022-12-10T05:30:46;100918.41;;;-1.57;93.81
75692;BME280;64307;52.508;6.090;2022-12-10T05:33:11;100911.69;;;-1.51;93.72
75692;BME280;64307;52.508;6.090;2022-12-10T05:35:36;100922.50;;;-1.46;93.60
75692;BME280;64307;52.508;6.090;2022-12-10T05:38:02;100924.91;;;-1.45;93.75
75692;BME280;64307;52.508;6.090;2022-12-10T05:40:27;100921.84;;;-1.52;93.29
75692;BME280;64307;52.508;6.090;2022-12-10T05:42:52;100925.41;;;-1.43;93.47
75692;BME280;64307;52.508;6.090;2022-12-10T05:45:18;100921.19;;;-1.49;93.00
75692;BME280;64307;52.508;6.090;2022-12-10T05:47:43;100934.19;;;-1.85;94.45
75692;BME280;64307;52.508;6.090;2022-12-10T05:50:08;100930.41;;;-1.98;94.53
75692;BME280;64307;52.508;6.090;2022-12-10T05:52:33;100935.69;;;-2.01;95.06
75692;BME280;64307;52.508;6.090;2022-12-10T05:54:59;100946.44;;;-1.74;94.99
75692;BME280;64307;52.508;6.090;2022-12-10T05:57:24;100949.66;;;-1.72;93.82
75692;BME280;64307;52.508;6.090;2022-12-10T05:59:49;100947.22;;;-2.04;95.55
75692;BME280;64307;52.508;6.090;2022-12-10T06:02:14;100950.13;;;-2.01;94.51
75692;BME280;64307;52.508;6.090;2022-12-10T06:04:40;100955.72;;;-2.06;95.58
75692;BME280;64307;52.508;6.090;2022-12-10T06:07:05;100956.22;;;-2.04;95.39
75692;BME280;64307;52.508;6.090;2022-12-10T06:09:30;100953.53;;;-1.95;94.47
75692;BME280;64307;52.508;6.090;2022-12-10T06:11:55;100952.34;;;-2.25;95.89
75692;BME280;64307;52.508;6.090;2022-12-10T06:14:21;100952.56;;;-1.99;95.86
75692;BME280;64307;52.508;6.090;2022-12-10T06:16:46;100945.44;;;-1.78;95.57
75692;BME280;64307;52.508;6.090;2022-12-10T06:19:11;100942.13;;;-1.97;93.46
75692;BME280;64307;52.508;6.090;2022-12-10T06:21:37;100953.47;;;-2.04;95.79
75692;BME280;64307;52.508;6.090;2022-12-10T06:24:02;100949.84;;;-1.91;95.01
75692;BME280;64307;52.508;6.090;2022-12-10T06:26:28;100942.06;;;-2.06;95.21
75692;BME280;64307;52.508;6.090;2022-12-10T06:28:54;100951.00;;;-1.92;95.55
75692;BME280;64307;52.508;6.090;2022-12-10T06:31:20;100960.13;;;-1.66;94.80
75692;BME280;64307;52.508;6.090;2022-12-10T06:33:46;100963.78;;;-1.70;94.74
75692;BME280;64307;52.508;6.090;2022-12-10T06:36:13;100940.25;;;-1.88;94.83
75692;BME280;64307;52.508;6.090;2022-12-10T06:38:40;100955.94;;;-1.72;94.74
75692;BME280;64307;52.508;6.090;2022-12-10T06:41:11;100961.97;;;-1.83;95.18
75692;BME280;64307;52.508;6.090;2022-12-10T06:43:38;100956.38;;;-1.78;94.35
75692;BME280;64307;52.508;6.090;2022-12-10T06:46:05;100960.84;;;-1.82;94.80
75692;BME280;64307;52.508;6.090;2022-12-10T06:48:31;100960.13;;;-1.66;94.87
75692;BME280;64307;52.508;6.090;2022-12-10T06:50:56;100960.69;;;-1.55;93.96
75692;BME280;64307;52.508;6.090;2022-12-10T06:53:21;100970.25;;;-1.66;93.90
75692;BME280;64307;52.508;6.090;2022-12-10T06:55:47;100962.19;;;-1.71;93.53
75692;BME280;64307;52.508;6.090;2022-12-10T06:58:12;100971.28;;;-2.06;94.41
75692;BME280;64307;52.508;6.090;2022-12-10T07:00:37;100973.81;;;-2.10;96.27
75692;BME280;64307;52.508;6.090;2022-12-10T07:03:02;100976.22;;;-2.08;95.94
75692;BME280;64307;52.508;6.090;2022-12-10T07:05:28;100966.00;;;-2.03;95.11
75692;BME280;64307;52.508;6.090;2022-12-10T07:07:53;100987.03;;;-2.03;95.29
75692;BME280;64307;52.508;6.090;2022-12-10T07:10:18;100986.56;;;-1.97;95.86
75692;BME280;64307;52.508;6.090;2022-12-10T07:12:44;100983.25;;;-2.29;95.81
75692;BME280;64307;52.508;6.090;2022-12-10T07:15:09;100987.19;;;-2.22;95.97
75692;BME280;64307;52.508;6.090;2022-12-10T07:17:34;100990.47;;;-2.11;95.73
75692;BME280;64307;52.508;6.090;2022-12-10T07:20:00;100992.09;;;-2.10;95.75
75692;BME280;64307;52.508;6.090;2022-12-10T07:22:25;100992.69;;;-2.13;95.55
75692;BME280;64307;52.508;6.090;2022-12-10T07:24:50;101004.00;;;-2.06;95.28
75692;BME280;64307;52.508;6.090;2022-12-10T07:27:16;101005.41;;;-2.09;95.47
75692;BME280;64307;52.508;6.090;2022-12-10T07:29:41;100998.31;;;-1.96;95.36
75692;BME280;64307;52.508;6.090;2022-12-10T07:32:06;101005.81;;;-2.02;95.05
75692;BME280;64307;52.508;6.090;2022-12-10T07:34:32;101008.41;;;-1.97;94.00
75692;BME280;64307;52.508;6.090;2022-12-10T07:36:57;101018.03;;;-1.99;94.59
75692;BME280;64307;52.508;6.090;2022-12-10T07:39:22;101013.91;;;-2.10;95.33
75692;BME280;64307;52.508;6.090;2022-12-10T07:41:49;101022.19;;;-2.02;95.43
75692;BME280;64307;52.508;6.090;2022-12-10T07:44:16;101022.00;;;-2.05;95.26
75692;BME280;64307;52.508;6.090;2022-12-10T07:46:41;101020.13;;;-2.18;95.11
75692;BME280;64307;52.508;6.090;2022-12-10T07:49:07;101022.75;;;-2.27;95.81
75692;BME280;64307;52.508;6.090;2022-12-10T07:51:33;101028.75;;;-2.03;95.60
75692;BME280;64307;52.508;6.090;2022-12-10T07:53:58;101035.91;;;-1.93;96.64
75692;BME280;64307;52.508;6.090;2022-12-10T07:56:24;101029.31;;;-1.70;94.81
75692;BME280;64307;52.508;6.090;2022-12-10T07:58:50;101030.56;;;-1.54;94.06
75692;BME280;64307;52.508;6.090;2022-12-10T08:01:19;101037.25;;;-1.82;94.79
75692;BME280;64307;52.508;6.090;2022-12-10T08:03:46;101025.97;;;-1.89;94.59
75692;BME280;64307;52.508;6.090;2022-12-10T08:06:14;101033.66;;;-1.69;94.76
75692;BME280;64307;52.508;6.090;2022-12-10T08:08:41;101026.72;;;-1.75;94.98
75692;BME280;64307;52.508;6.090;2022-12-10T08:11:07;101039.13;;;-1.69;94.69
75692;BME280;64307;52.508;6.090;2022-12-10T08:13:34;101032.34;;;-1.72;94.23
75692;BME280;64307;52.508;6.090;2022-12-10T08:16:01;101036.00;;;-1.76;94.32
75692;BME280;64307;52.508;6.090;2022-12-10T08:18:28;101045.81;;;-1.75;94.97
75692;BME280;64307;52.508;6.090;2022-12-10T08:20:53;101045.22;;;-1.50;95.14
75692;BME280;64307;52.508;6.090;2022-12-10T08:23:18;101045.03;;;-1.23;93.78
75692;BME280;64307;52.508;6.090;2022-12-10T08:25:43;101036.31;;;-0.94;92.42
75692;BME280;64307;52.508;6.090;2022-12-10T08:28:09;101043.38;;;-1.02;92.32
75692;BME280;64307;52.508;6.090;2022-12-10T08:30:34;101042.34;;;-1.14;92.50
75692;BME280;64307;52.508;6.090;2022-12-10T08:33:00;101045.03;;;-1.23;92.18
75692;BME280;64307;52.508;6.090;2022-12-10T08:35:25;101047.25;;;-1.25;93.05
75692;BME280;64307;52.508;6.090;2022-12-10T08:37:50;101047.03;;;-1.06;92.64
75692;BME280;64307;52.508;6.090;2022-12-10T08:40:16;101046.47;;;-1.25;92.19
75692;BME280;64307;52.508;6.090;2022-12-10T08:42:41;101046.19;;;-1.46;92.75
75692;BME280;64307;52.508;6.090;2022-12-10T08:45:07;101046.03;;;-1.41;93.08
75692;BME280;64307;52.508;6.090;2022-12-10T08:47:32;101049.94;;;-1.33;92.85
75692;BME280;64307;52.508;6.090;2022-12-10T08:49:58;101057.47;;;-1.39;93.33
75692;BME280;64307;52.508;6.090;2022-12-10T08:52:23;101058.78;;;-1.36;93.37
75692;BME280;64307;52.508;6.090;2022-12-10T08:54:48;101067.06;;;-1.19;92.92
75692;BME280;64307;52.508;6.090;2022-12-10T08:57:14;101068.56;;;-1.05;92.69
75692;BME280;64307;52.508;6.090;2022-12-10T08:59:39;101063.97;;;-1.26;92.68
75692;BME280;64307;52.508;6.090;2022-12-10T09:02:04;101049.28;;;-1.39;93.34
75692;BME280;64307;52.508;6.090;2022-12-10T09:04:30;101056.03;;;-1.36;93.48
75692;BME280;64307;52.508;6.090;2022-12-10T09:06:55;101059.66;;;-1.27;93.25
75692;BME280;64307;52.508;6.090;2022-12-10T09:09:20;101058.28;;;-1.38;94.06
75692;BME280;64307;52.508;6.090;2022-12-10T09:11:46;101061.97;;;-1.12;92.95
75692;BME280;64307;52.508;6.090;2022-12-10T09:14:11;101076.75;;;-1.13;92.53
75692;BME280;64307;52.508;6.090;2022-12-10T09:16:38;101069.66;;;-1.14;93.36
75692;BME280;64307;52.508;6.090;2022-12-10T09:19:07;101076.91;;;-1.10;92.74
75692;BME280;64307;52.508;6.090;2022-12-10T09:21:32;101084.84;;;-1.00;92.42
75692;BME280;64307;52.508;6.090;2022-12-10T09:23:59;101073.06;;;-1.09;92.96
75692;BME280;64307;52.508;6.090;2022-12-10T09:26:25;101077.72;;;-0.78;92.87
75692;BME280;64307;52.508;6.090;2022-12-10T09:28:50;101076.66;;;-0.60;92.14
75692;BME280;64307;52.508;6.090;2022-12-10T09:31:18;101082.91;;;-0.68;92.01
75692;BME280;64307;52.508;6.090;2022-12-10T09:33:44;101089.84;;;-0.62;91.75
75692;BME280;64307;52.508;6.090;2022-12-10T09:36:10;101085.22;;;-0.93;92.22
75692;BME280;64307;52.508;6.090;2022-12-10T09:38:41;101099.75;;;-0.75;92.11
75692;BME280;64307;52.508;6.090;2022-12-10T09:46:12;101088.22;;;-0.72;92.14
75692;BME280;64307;52.508;6.090;2022-12-10T09:51:29;101101.59;;;-0.62;91.29
75692;BME280;64307;52.508;6.090;2022-12-10T09:53:57;101105.50;;;-0.46;91.32
75692;BME280;64307;52.508;6.090;2022-12-10T09:56:36;101101.34;;;-0.43;90.41
75692;BME280;64307;52.508;6.090;2022-12-10T09:59:17;101103.72;;;-0.50;90.86
75692;BME280;64307;52.508;6.090;2022-12-10T10:01:46;101104.53;;;-0.50;91.36
75692;BME280;64307;52.508;6.090;2022-12-10T10:04:12;101114.03;;;-0.39;91.39
75692;BME280;64307;52.508;6.090;2022-12-10T10:06:37;101113.44;;;-0.27;90.49
75692;BME280;64307;52.508;6.090;2022-12-10T10:09:04;101117.16;;;-0.23;90.25
75692;BME280;64307;52.508;6.090;2022-12-10T10:11:33;101102.31;;;-0.39;90.00
75692;BME280;64307;52.508;6.090;2022-12-10T10:14:05;101101.34;;;-0.35;90.63
75692;BME280;64307;52.508;6.090;2022-12-10T10:19:05;101103.03;;;-0.17;89.27
75692;BME280;64307;52.508;6.090;2022-12-10T10:21:43;101098.84;;;-0.06;89.91
75692;BME280;64307;52.508;6.090;2022-12-10T10:24:15;101113.06;;;0.22;89.03
75692;BME280;64307;52.508;6.090;2022-12-10T10:26:42;101109.81;;;0.03;89.76
75692;BME280;64307;52.508;6.090;2022-12-10T10:29:11;101116.88;;;-0.13;89.60
75692;BME280;64307;52.508;6.090;2022-12-10T10:31:39;101115.28;;;0.03;89.30
75692;BME280;64307;52.508;6.090;2022-12-10T10:34:21;101106.88;;;-0.09;89.17
75692;BME280;64307;52.508;6.090;2022-12-10T10:36:57;101112.38;;;-0.01;89.38
75692;BME280;64307;52.508;6.090;2022-12-10T10:39:30;101114.16;;;0.13;88.89
75692;BME280;64307;52.508;6.090;2022-12-10T10:41:58;101116.41;;;0.19;88.85
75692;BME280;64307;52.508;6.090;2022-12-10T10:44:27;101112.25;;;0.22;88.68
75692;BME280;64307;52.508;6.090;2022-12-10T10:46:54;101114.16;;;0.13;88.72
75692;BME280;64307;52.508;6.090;2022-12-10T10:49:28;101114.16;;;0.13;88.82
75692;BME280;64307;52.508;6.090;2022-12-10T10:52:14;101109.16;;;0.15;89.00
75692;BME280;64307;52.508;6.090;2022-12-10T10:54:45;101110.13;;;0.27;89.29
75692;BME280;64307;52.508;6.090;2022-12-10T10:59:38;101110.47;;;0.17;89.37
75692;BME280;64307;52.508;6.090;2022-12-10T11:04:52;101112.72;;;0.15;89.78
75692;BME280;64307;52.508;6.090;2022-12-10T11:07:36;101110.16;;;0.10;89.23
75692;BME280;64307;52.508;6.090;2022-12-10T11:10:14;101113.38;;;0.12;89.39
75692;BME280;64307;52.508;6.090;2022-12-10T11:12:41;101111.75;;;0.11;89.52
75692;BME280;64307;52.508;6.090;2022-12-10T11:17:52;101113.03;;;0.39;88.89
75692;BME280;64307;52.508;6.090;2022-12-10T11:20:31;101111.13;;;0.48;88.78
75692;BME280;64307;52.508;6.090;2022-12-10T11:22:58;101112.09;;;0.18;88.88
75692;BME280;64307;52.508;6.090;2022-12-10T11:25:44;101112.56;;;0.20;89.43
75692;BME280;64307;52.508;6.090;2022-12-10T11:34:18;101108.84;;;0.33;89.45
75692;BME280;64307;52.508;6.090;2022-12-10T11:39:51;101101.44;;;0.08;90.15
75692;BME280;64307;52.508;6.090;2022-12-10T11:45:19;101084.53;;;0.15;90.71
75692;BME280;64307;52.508;6.090;2022-12-10T11:50:47;101096.31;;;0.32;89.67
75692;BME280;64307;52.508;6.090;2022-12-10T11:53:32;101092.56;;;0.45;89.22
75692;BME280;64307;52.508;6.090;2022-12-10T11:56:30;101091.31;;;0.34;89.82
75692;BME280;64307;52.508;6.090;2022-12-10T11:59:18;101095.34;;;0.28;90.22
75692;BME280;64307;52.508;6.090;2022-12-10T12:02:01;101095.16;;;0.33;90.54
75692;BME280;64307;52.508;6.090;2022-12-10T12:04:39;101092.91;;;0.44;90.31
75692;BME280;64307;52.508;6.090;2022-12-10T12:12:48;101088.72;;;0.21;90.71
75692;BME280;64307;52.508;6.090;2022-12-10T12:15:18;101088.72;;;0.29;90.83
75692;BME280;64307;52.508;6.090;2022-12-10T12:17:50;101083.22;;;0.21;90.94
75692;BME280;64307;52.508;6.090;2022-12-10T12:20:24;101091.78;;;0.19;91.15
75692;BME280;64307;52.508;6.090;2022-12-10T12:22:58;101096.28;;;0.15;90.55
75692;BME280;64307;52.508;6.090;2022-12-10T12:25:28;101094.34;;;0.16;91.21
75692;BME280;64307;52.508;6.090;2022-12-10T12:28:04;101102.56;;;0.16;91.54
75692;BME280;64307;52.508;6.090;2022-12-10T12:30:34;101096.47;;;0.10;91.42
75692;BME280;64307;52.508;6.090;2022-12-10T12:33:06;101094.84;;;0.18;91.35
75692;BME280;64307;52.508;6.090;2022-12-10T12:35:47;101096.13;;;0.20;90.86
75692;BME280;64307;52.508;6.090;2022-12-10T12:41:15;101105.00;;;0.34;91.03
75692;BME280;64307;52.508;6.090;2022-12-10T12:46:44;101111.25;;;0.43;89.24
75692;BME280;64307;52.508;6.090;2022-12-10T12:49:19;101101.13;;;0.35;90.23
75692;BME280;64307;52.508;6.090;2022-12-10T12:51:53;101120.28;;;0.44;90.84
75692;BME280;64307;52.508;6.090;2022-12-10T12:54:19;101105.31;;;0.33;90.33
75692;BME280;64307;52.508;6.090;2022-12-10T12:56:58;101117.88;;;0.42;90.33
75692;BME280;64307;52.508;6.090;2022-12-10T13:02:22;101114.34;;;0.42;90.59
75692;BME280;64307;52.508;6.090;2022-12-10T13:04:52;101118.66;;;0.51;90.57
75692;BME280;64307;52.508;6.090;2022-12-10T13:09:51;101124.66;;;0.53;90.58
75692;BME280;64307;52.508;6.090;2022-12-10T13:12:32;101129.31;;;0.53;90.19
75692;BME280;64307;52.508;6.090;2022-12-10T13:15:34;101129.31;;;0.44;90.97
75692;BME280;64307;52.508;6.090;2022-12-10T13:18:22;101122.41;;;0.47;91.19
75692;BME280;64307;52.508;6.090;2022-12-10T13:24:06;101112.22;;;0.64;90.28
75692;BME280;64307;52.508;6.090;2022-12-10T13:26:32;101122.06;;;0.57;90.58
75692;BME280;64307;52.508;6.090;2022-12-10T13:29:24;101122.72;;;0.62;91.57
75692;BME280;64307;52.508;6.090;2022-12-10T13:31:56;101122.50;;;0.84;90.90
75692;BME280;64307;52.508;6.090;2022-12-10T13:34:25;101120.72;;;0.89;90.29
75692;BME280;64307;52.508;6.090;2022-12-10T13:45:02;101114.16;;;0.72;89.89
75692;BME280;64307;52.508;6.090;2022-12-10T13:50:02;101126.75;;;0.56;91.45
75692;BME280;64307;52.508;6.090;2022-12-10T13:52:48;101119.66;;;0.38;92.04
75692;BME280;64307;52.508;6.090;2022-12-10T14:00:19;101120.28;;;0.61;91.48
75692;BME280;64307;52.508;6.090;2022-12-10T14:02:57;101136.25;;;0.67;91.73
75692;BME280;64307;52.508;6.090;2022-12-10T14:08:18;101144.63;;;0.79;90.91
75692;BME280;64307;52.508;6.090;2022-12-10T14:10:45;101143.47;;;0.72;90.68
75692;BME280;64307;52.508;6.090;2022-12-10T14:13:13;101156.41;;;0.71;90.76
75692;BME280;64307;52.508;6.090;2022-12-10T14:15:41;101159.97;;;0.63;90.98
75692;BME280;64307;52.508;6.090;2022-12-10T14:18:13;101157.69;;;0.57;90.57
75692;BME280;64307;52.508;6.090;2022-12-10T14:20:49;101159.59;;;0.39;91.47
75692;BME280;64307;52.508;6.090;2022-12-10T14:23:30;101169.09;;;0.33;92.40
75692;BME280;64307;52.508;6.090;2022-12-10T14:26:20;101173.47;;;0.34;91.13
75692;BME280;64307;52.508;6.090;2022-12-10T14:28:54;101167.34;;;0.20;92.16